Lower Pig Pen, North Carolina
Current Conditions -  °F | °C
As of 4:55 AM on Friday 19 Dec 2014 (Local Time) from K0A9 Reporting Station
Overcast Overcast  
Wind Chill: 36°   Ceiling: 4600
Heat Index: 36°   Visibility: 10mi
Dew Point: 25°   Wind: 3mph
Humidity: 65%   Direction: 290°WNW
Pressure: 30.13"   Gusts: NA
Location:  35.955°N, 82.2044°W
Report Text: K0A9 190955Z AUTO 29003KT 10SM OVC046 02/M04 A3013 RMK
Loading
Personal Weather Stations






























Interactive Weather Map New forecast layout! Learn more

10-Day Weather Forecast

Advertisements
Track Severe Weather on mobile